HBG - Hattiesburg Bobby L Chain Muni

Pirep is a free, collaborative database of all public and private airports located within the United States. All pilots are welcome to contribute, edit, and improve any airport they have local knowledge about, no registration required.
Are you familiar with this airport? Help out other pilots by adding your local knowledge.
Uploaded photos will be licensed under a CC BY-SA 4.0 license. Please only upload photos you have the rights to use.
Tags
Public
Undocu­mented
METAR / TAF
Edit Tags
Food
Camping
Lodging
Car Rental
Bicycles
Swimming
Golfing
Fishing
Hot Springs
Museum
Flying Clubs
Airpark
Upcoming Events
No upcoming events. Is anything happening here soon?
*
*
*

Where exactly on/near the airport is this event taking place?

Is there a webpage with more information for this event?

Who should be contacted for more information?

What is this event all about?

Repeat every
Description
Transient Parking
Fuel Location
Landing & Tie-down Fees
Crew Car Availability
Flying Clubs
WiFi Access
Airport Statistics
Location: Hattiesburg, MS
Elevation: 150ft
Sectional: New Orleans
Activation date: Apr 1940
Fuel: 100LL, A (prices)
Runway 13/31: 6,094ft
Access: Open to the public
Current Weather — VFR
  • Weather data is strictly informational and not for flight planning purposes.
  • METAR
    2024-05-29 12:53:00 CDT
    Ceiling Wind Temperature Dewpoint Weather Visbility
    Sky clear Variable 87°F 60°F N/A 10SM
    Raw: KHBG 291753Z AUTO VRB06KT 10SM CLR 31/16 A3012 RMK AO2 SLP195 T03110156 10311 20222 58014 PWINO $
  • TAF
    2024-05-29 13:00:00 CDT – 2024-05-29 19:00:00 CDT
    Ceiling Wind Weather Visbility
    Sky clear 90° @ 8kt N/A 6SM
    Clouds: Scattered @ 6,000ft, Scattered @ 10,000ft
    Raw: KHBG 291756Z 2918/3018 09008KT P6SM SCT060 SCT100 FM300000 VRB05G15KT P6SM VCSH BKN040 BKN080 FM300400 07005KT P6SM SCT035 BKN100
  • TAF
    2024-05-29 19:00:00 CDT – 2024-05-29 23:00:00 CDT
    Ceiling Wind Weather Visbility
    4,000ft Variable, gusts 15kt Showers in vicinity 6SM
    Clouds: Broken @ 4,000ft, Broken @ 8,000ft
    Raw: KHBG 291756Z 2918/3018 09008KT P6SM SCT060 SCT100 FM300000 VRB05G15KT P6SM VCSH BKN040 BKN080 FM300400 07005KT P6SM SCT035 BKN100
  • TAF
    2024-05-29 23:00:00 CDT – 2024-05-30 13:00:00 CDT
    Ceiling Wind Weather Visbility
    10,000ft 70° @ 5kt N/A 6SM
    Clouds: Scattered @ 3,500ft, Broken @ 10,000ft
    Raw: KHBG 291756Z 2918/3018 09008KT P6SM SCT060 SCT100 FM300000 VRB05G15KT P6SM VCSH BKN040 BKN080 FM300400 07005KT P6SM SCT035 BKN100
Click/tap to add an annotation marker to the map
Airport Webcams
No webcams added yet.
Direct links to live image URLs will be displayed inline on this page. URLs to separate webpages will be linked to.
URL:
Direct links to live image URLs will be displayed inline on this page. URLs to separate webpages will be linked to.
URL:
Remarks
  • Run-on ldg by skid hel are not allowed.
  • For cd ctc houston artcc at 281-230-5622.
  • Actvt reil rwy 13; mirl rwy 13/31 - ctaf. papi rwy 13 & 31 opr consly.
  • Courtesy car, taxis, public bus (wkdays) & rental cars avbl.
  • Fuel svc avbl 24 hrs with credit card.
  • Ots indef.
  • Apch ratio 50:1 to dthr; fm +61 ft trees; 2396 ft fm dthr.
Comments
Leave a comment What was your experience like at this airport?